Time;durP1;ratioP1;P1;durP2;ratioP2;P2;SDS_P1;SDS_P2;PMS_P1;PMS_P2;Temp;Humidity;BMP_temperature;BMP_pressure;BME280_temperature;BME280_humidity;BME280_pressure;Samples;Min_cycle;Max_cycle;Signal;HPM_P1;HPM_P2
2022/09/07 00:01:37;;;;;;;0.10;0.10;;;26.60;55.90;;;;;;4155162;28;20291;-72
2022/09/07 00:04:26;;;;;;;0.35;0.35;;;26.60;56.60;;;;;;4147292;28;20056;-72
2022/09/07 00:07:11;;;;;;;0.28;0.28;;;26.60;55.80;;;;;;4146064;28;20068;-71
2022/09/07 00:09:58;;;;;;;0.57;0.57;;;26.50;55.80;;;;;;4144259;28;20060;-72
2022/09/07 00:12:53;;;;;;;0.08;0.08;;;26.50;55.90;;;;;;4145500;28;20539;-71
2022/09/07 00:15:47;;;;;;;0.20;0.20;;;26.50;56.20;;;;;;4139694;28;20093;-71
2022/09/07 00:18:32;;;;;;;0.10;0.10;;;26.50;56.30;;;;;;4137355;28;20095;-71
2022/09/07 00:21:26;;;;;;;0.55;0.55;;;26.50;56.30;;;;;;4157066;28;20471;-71
2022/09/07 00:24:11;;;;;;;0.10;0.10;;;26.50;56.30;;;;;;4110698;28;20095;-70
2022/09/07 00:26:58;;;;;;;0.00;0.00;;;26.40;56.20;;;;;;4115992;28;20149;-71
2022/09/07 00:29:47;;;;;;;0.22;0.22;;;26.50;56.40;;;;;;4118460;28;20136;-71
2022/09/07 00:32:37;;;;;;;0.00;0.00;;;26.40;56.40;;;;;;4132517;28;20057;-71
2022/09/07 00:35:22;;;;;;;3.30;1.73;;;26.40;56.40;;;;;;4126642;28;20078;-70
2022/09/07 00:38:28;;;;;;;0.00;0.00;;;26.40;56.20;;;;;;4103288;28;20261;-71
2022/09/07 00:41:16;;;;;;;0.00;0.00;;;26.40;56.10;;;;;;4128177;28;20068;-71
2022/09/07 00:44:57;;;;;;;0.00;0.00;;;26.40;56.30;;;;;;4117001;28;20118;-71
2022/09/07 00:51:01;;;;;;;0.00;0.00;;;26.30;56.20;;;;;;4084495;28;20509;-70
2022/09/07 00:53:48;;;;;;;0.00;0.00;;;26.40;56.40;;;;;;4134916;28;20076;-72
2022/09/07 00:56:58;;;;;;;0.00;0.00;;;26.30;56.40;;;;;;4142410;28;20051;-70
2022/09/07 00:59:54;;;;;;;0.00;0.00;;;26.30;56.40;;;;;;4140347;28;20199;-70
2022/09/07 01:02:50;;;;;;;0.08;0.08;;;26.30;56.50;;;;;;4138954;28;20140;-70
2022/09/07 01:05:43;;;;;;;3.15;0.88;;;26.30;56.70;;;;;;4134298;28;20106;-68
2022/09/07 01:08:28;;;;;;;0.00;0.00;;;26.30;56.80;;;;;;4127613;28;20060;-70
2022/09/07 01:11:34;;;;;;;0.10;0.10;;;26.20;56.70;;;;;;4142820;28;20072;-69
2022/09/07 01:14:35;;;;;;;2.03;0.45;;;26.20;56.80;;;;;;4108146;28;20409;-69
2022/09/07 01:17:35;;;;;;;0.38;0.38;;;26.30;57.50;;;;;;4111036;28;20184;-69
2022/09/07 01:20:56;;;;;;;0.10;0.10;;;26.20;56.80;;;;;;4140723;28;20051;-69
2022/09/07 01:24:21;;;;;;;0.10;0.10;;;26.20;56.80;;;;;;4118292;28;20049;-70
2022/09/07 01:28:03;;;;;;;0.00;0.00;;;26.20;56.80;;;;;;4126334;28;20140;-70
2022/09/07 01:34:21;;;;;;;0.13;0.13;;;26.20;57.00;;;;;;4138137;28;20535;-70
2022/09/07 01:37:23;;;;;;;0.00;0.00;;;26.20;57.10;;;;;;4143244;28;20152;-69
2022/09/07 01:40:35;;;;;;;0.00;0.00;;;26.10;57.10;;;;;;4153689;28;20056;-70
2022/09/07 01:43:29;;;;;;;0.63;0.63;;;26.10;57.20;;;;;;4151858;28;20061;-71
2022/09/07 01:46:20;;;;;;;0.00;0.00;;;26.10;57.20;;;;;;4132539;28;20045;-70
2022/09/07 01:49:10;;;;;;;0.28;0.28;;;26.10;57.10;;;;;;4122193;28;20061;-71
2022/09/07 01:51:59;;;;;;;0.00;0.00;;;26.10;57.80;;;;;;4125918;28;20095;-69
2022/09/07 01:54:48;;;;;;;0.25;0.25;;;26.20;57.10;;;;;;4141767;28;20048;-69
2022/09/07 01:57:38;;;;;;;0.40;0.40;;;26.10;57.00;;;;;;4139318;28;20057;-70
2022/09/07 02:00:27;;;;;;;0.20;0.20;;;26.10;57.00;;;;;;4138294;28;20065;-70
2022/09/07 02:03:14;;;;;;;0.10;0.10;;;26.20;57.10;;;;;;4140648;28;20127;-71
2022/09/07 02:06:01;;;;;;;0.10;0.10;;;26.10;57.10;;;;;;4157413;28;20059;-71
2022/09/07 02:08:50;;;;;;;0.05;0.05;;;26.20;57.10;;;;;;4155386;28;20056;-68
2022/09/07 02:11:38;;;;;;;0.00;0.00;;;26.20;57.20;;;;;;4154163;28;20125;-68
2022/09/07 02:14:24;;;;;;;0.00;0.00;;;26.20;57.30;;;;;;4155545;28;20200;-69
2022/09/07 02:17:14;;;;;;;0.05;0.05;;;26.20;57.30;;;;;;4155682;28;20056;-69
2022/09/07 02:19:58;;;;;;;0.00;0.00;;;26.20;57.20;;;;;;4156405;28;20503;-69
2022/09/07 02:22:43;;;;;;;0.10;0.10;;;26.20;57.20;;;;;;4157761;28;20064;-69
2022/09/07 02:25:29;;;;;;;0.10;0.10;;;26.10;57.20;;;;;;4140907;28;20084;-69
2022/09/07 02:28:17;;;;;;;0.28;0.28;;;26.10;57.30;;;;;;4141316;28;20057;-69
2022/09/07 02:30:59;;;;;;;0.10;0.10;;;26.10;57.30;;;;;;4141366;28;20172;-69
2022/09/07 02:33:46;;;;;;;0.00;0.00;;;26.20;57.40;;;;;;4144705;28;20443;-69
2022/09/07 02:36:30;;;;;;;3.60;1.40;;;26.20;57.50;;;;;;4159830;28;20061;-69
2022/09/07 02:39:11;;;;;;;1.55;0.70;;;26.10;57.50;;;;;;4140413;28;20057;-69
2022/09/07 02:41:53;;;;;;;0.00;0.00;;;26.10;57.50;;;;;;4141172;28;20110;-69
2022/09/07 02:44:37;;;;;;;0.05;0.05;;;26.10;57.70;;;;;;4141132;28;20127;-69
2022/09/07 02:47:29;;;;;;;0.10;0.10;;;26.10;57.80;;;;;;4146736;28;20060;-68
2022/09/07 02:50:36;;;;;;;0.20;0.20;;;26.00;57.70;;;;;;4139784;28;21962;-69
2022/09/07 02:53:32;;;;;;;0.50;0.50;;;26.00;57.80;;;;;;4145573;28;20068;-69
2022/09/07 02:56:26;;;;;;;0.00;0.00;;;26.00;57.70;;;;;;4149731;28;20048;-69
2022/09/07 02:59:20;;;;;;;0.85;0.30;;;26.00;58.00;;;;;;4156083;28;20048;-69
2022/09/07 03:02:09;;;;;;;0.05;0.05;;;26.00;57.90;;;;;;4142229;28;20060;-69
2022/09/07 03:05:02;;;;;;;0.20;0.20;;;26.00;58.10;;;;;;4154757;28;20052;-69
2022/09/07 03:07:51;;;;;;;0.00;0.00;;;26.00;58.10;;;;;;4154627;28;20053;-69
2022/09/07 03:10:34;;;;;;;0.30;0.30;;;26.00;58.30;;;;;;4155688;28;20144;-68
2022/09/07 03:13:22;;;;;;;0.20;0.15;;;25.90;58.40;;;;;;4159214;28;20567;-69
2022/09/07 03:16:05;;;;;;;0.00;0.00;;;25.90;58.50;;;;;;4173351;28;20138;-69
2022/09/07 03:18:47;;;;;;;0.00;0.00;;;25.90;58.50;;;;;;4172495;28;20048;-69
2022/09/07 03:21:29;;;;;;;0.10;0.10;;;25.90;58.50;;;;;;4148775;28;20407;-68
2022/09/07 03:24:12;;;;;;;0.10;0.10;;;25.90;58.60;;;;;;4169880;28;20056;-69
2022/09/07 03:26:54;;;;;;;0.00;0.00;;;25.90;58.70;;;;;;4173087;28;20557;-69
2022/09/07 03:29:35;;;;;;;0.40;0.40;;;25.80;58.50;;;;;;4153007;28;20049;-69
2022/09/07 03:32:23;;;;;;;0.00;0.00;;;25.80;58.50;;;;;;4158271;28;20060;-69
2022/09/07 03:35:07;;;;;;;0.00;0.00;;;25.90;58.70;;;;;;4137059;28;20072;-69
2022/09/07 03:37:49;;;;;;;0.30;0.30;;;25.80;58.70;;;;;;4159142;28;20451;-69
2022/09/07 03:40:32;;;;;;;0.17;0.17;;;25.80;58.80;;;;;;4124652;28;20600;-69
2022/09/07 03:43:13;;;;;;;0.00;0.00;;;25.80;58.80;;;;;;4152465;28;20055;-69
2022/09/07 03:46:03;;;;;;;0.25;0.22;;;25.80;58.90;;;;;;4175070;28;20171;-68
2022/09/07 03:48:45;;;;;;;0.00;0.00;;;25.80;59.00;;;;;;4163150;28;20052;-69
2022/09/07 03:51:26;;;;;;;0.03;0.03;;;25.80;59.00;;;;;;4174377;28;20638;-71
2022/09/07 03:54:08;;;;;;;0.00;0.00;;;25.70;58.90;;;;;;4174621;28;20052;-71
2022/09/07 03:56:51;;;;;;;0.28;0.28;;;25.80;59.10;;;;;;4174781;28;20063;-71
2022/09/07 03:59:33;;;;;;;0.32;0.32;;;25.80;59.10;;;;;;4148017;28;20063;-71
2022/09/07 04:02:15;;;;;;;0.00;0.00;;;25.80;59.20;;;;;;4146257;28;20069;-71
2022/09/07 04:04:56;;;;;;;0.03;0.03;;;25.70;59.10;;;;;;4150065;28;20577;-71
2022/09/07 04:07:38;;;;;;;0.00;0.00;;;25.70;59.10;;;;;;4158992;28;20044;-71
2022/09/07 04:10:20;;;;;;;0.20;0.20;;;25.70;59.20;;;;;;4133400;28;20053;-71
2022/09/07 04:13:03;;;;;;;0.32;0.32;;;25.70;59.20;;;;;;4165347;28;20056;-71
2022/09/07 04:15:44;;;;;;;0.08;0.08;;;25.70;59.30;;;;;;4175230;28;20203;-72
2022/09/07 04:18:26;;;;;;;0.00;0.00;;;25.70;59.30;;;;;;4174030;28;20051;-71
2022/09/07 04:21:07;;;;;;;0.00;0.00;;;25.70;59.40;;;;;;4175520;28;20190;-71
2022/09/07 04:23:49;;;;;;;0.22;0.22;;;25.70;59.50;;;;;;4165152;28;20052;-71
2022/09/07 04:26:32;;;;;;;1.85;0.90;;;25.60;59.40;;;;;;4158762;28;20151;-71
2022/09/07 04:29:18;;;;;;;0.00;0.00;;;25.60;59.50;;;;;;4158919;28;20048;-71
2022/09/07 04:31:59;;;;;;;0.40;0.40;;;25.60;59.50;;;;;;4157609;28;20060;-71
2022/09/07 04:34:41;;;;;;;0.28;0.28;;;25.60;59.60;;;;;;4157136;28;20061;-71
2022/09/07 04:37:25;;;;;;;1.17;0.52;;;25.60;59.60;;;;;;4158923;28;20388;-71
2022/09/07 04:40:07;;;;;;;0.00;0.00;;;25.60;59.70;;;;;;4162772;28;20056;-71
2022/09/07 04:42:48;;;;;;;0.10;0.10;;;25.60;60.50;;;;;;4174381;28;20527;-71
2022/09/07 04:45:31;;;;;;;0.15;0.15;;;25.60;59.70;;;;;;4162828;28;20115;-72
2022/09/07 04:48:12;;;;;;;0.65;0.65;;;25.60;59.70;;;;;;4175469;28;20075;-71
2022/09/07 04:50:53;;;;;;;0.85;0.85;;;25.60;59.80;;;;;;4173564;28;20056;-71
2022/09/07 04:53:37;;;;;;;0.00;0.00;;;25.60;59.80;;;;;;4171794;28;20052;-71
2022/09/07 04:56:19;;;;;;;2.35;1.13;;;25.50;59.80;;;;;;4141470;28;20196;-71
2022/09/07 04:59:02;;;;;;;0.13;0.13;;;25.50;59.80;;;;;;4142170;28;20088;-71
2022/09/07 05:01:50;;;;;;;0.73;0.73;;;25.60;60.00;;;;;;4149066;28;20052;-71
2022/09/07 05:04:31;;;;;;;0.10;0.10;;;25.50;59.90;;;;;;4157865;28;20056;-71
2022/09/07 05:07:12;;;;;;;0.00;0.00;;;25.50;60.00;;;;;;4159230;28;20060;-72
2022/09/07 05:09:54;;;;;;;0.22;0.22;;;25.50;60.10;;;;;;4117352;28;20520;-70
2022/09/07 05:12:36;;;;;;;0.00;0.00;;;25.50;60.90;;;;;;4157459;28;20106;-72
2022/09/07 05:15:17;;;;;;;0.45;0.45;;;25.50;60.10;;;;;;4159057;28;20079;-71
2022/09/07 05:18:00;;;;;;;0.00;0.00;;;25.50;60.20;;;;;;4158405;28;20059;-70
2022/09/07 05:20:42;;;;;;;0.10;0.10;;;25.40;60.10;;;;;;4158373;28;20060;-71
2022/09/07 05:23:25;;;;;;;3.53;1.00;;;25.50;60.20;;;;;;4153010;28;20052;-70
2022/09/07 05:26:06;;;;;;;0.00;0.00;;;25.50;60.20;;;;;;4158285;28;20048;-69
2022/09/07 05:28:51;;;;;;;0.00;0.00;;;25.50;60.20;;;;;;4146868;28;20507;-70
2022/09/07 05:31:33;;;;;;;0.00;0.00;;;25.50;60.40;;;;;;4160838;28;20053;-70
2022/09/07 05:34:16;;;;;;;0.20;0.20;;;25.50;60.50;;;;;;4158526;28;20103;-68
2022/09/07 05:37:13;;;;;;;0.15;0.15;;;25.40;60.70;;;;;;4150210;28;20057;-69
2022/09/07 05:39:55;;;;;;;0.00;0.00;;;25.50;61.00;;;;;;4151390;28;20053;-69
2022/09/07 05:42:37;;;;;;;0.57;0.57;;;25.50;60.90;;;;;;4157759;28;20064;-69
2022/09/07 05:45:21;;;;;;;0.10;0.10;;;25.50;60.80;;;;;;4156278;28;20094;-69
2022/09/07 05:48:03;;;;;;;0.80;0.52;;;25.50;60.90;;;;;;4135583;28;20404;-69
2022/09/07 05:50:55;;;;;;;0.50;0.50;;;25.50;60.90;;;;;;4142471;28;20056;-68
2022/09/07 05:53:37;;;;;;;0.22;0.22;;;25.40;60.80;;;;;;4142090;28;20176;-68
2022/09/07 05:56:19;;;;;;;1.85;1.75;;;25.50;60.80;;;;;;4155779;28;20056;-68
2022/09/07 05:59:02;;;;;;;0.10;0.10;;;25.50;60.90;;;;;;4161493;28;20057;-69
2022/09/07 06:01:43;;;;;;;0.40;0.40;;;25.50;60.90;;;;;;4168530;28;20396;-69
2022/09/07 06:04:24;;;;;;;;;;;25.50;60.90;;;;;;4158023;28;20056;-68
2022/09/07 06:07:07;;;;;;;0.40;0.40;;;25.50;60.80;;;;;;4160848;28;19978;-68
2022/09/07 06:10:01;;;;;;;0.00;0.00;;;25.40;60.70;;;;;;4173034;28;20408;-68
2022/09/07 06:13:02;;;;;;;7.07;1.17;;;25.40;60.80;;;;;;4152980;28;20051;-69
2022/09/07 06:15:46;;;;;;;;;;;25.40;60.90;;;;;;4149367;28;20179;-69
2022/09/07 06:18:30;;;;;;;0.00;0.00;;;25.40;60.90;;;;;;4156912;28;20197;-68
2022/09/07 06:21:13;;;;;;;1.73;1.65;;;25.40;61.10;;;;;;4144607;28;20565;-68
2022/09/07 06:23:56;;;;;;;0.08;0.08;;;25.40;61.20;;;;;;4160212;28;20434;-68
2022/09/07 06:26:37;;;;;;;0.73;0.73;;;25.40;61.20;;;;;;4143811;28;20052;-70
2022/09/07 06:29:21;;;;;;;1.98;0.50;;;25.30;61.20;;;;;;4157228;28;20052;-70
2022/09/07 06:32:03;;;;;;;3.05;1.55;;;25.40;61.20;;;;;;4132708;28;20059;-69
2022/09/07 06:35:06;;;;;;;0.20;0.20;;;25.40;61.20;;;;;;4156501;28;20060;-68
2022/09/07 06:37:47;;;;;;;0.15;0.15;;;25.40;62.10;;;;;;4156252;28;20127;-69
2022/09/07 06:40:33;;;;;;;0.52;0.52;;;25.30;61.20;;;;;;4148299;28;20056;-69
2022/09/07 06:43:20;;;;;;;0.10;0.10;;;25.30;61.20;;;;;;4147218;28;20068;-69
2022/09/07 06:46:08;;;;;;;1.00;1.00;;;25.40;61.20;;;;;;4169418;28;20094;-69
2022/09/07 06:49:10;;;;;;;0.05;0.05;;;25.40;61.20;;;;;;4153428;28;20102;-68
2022/09/07 06:51:55;;;;;;;0.00;0.00;;;25.40;61.20;;;;;;4153339;28;20047;-68
2022/09/07 06:54:40;;;;;;;3.55;1.48;;;25.40;61.20;;;;;;4154098;28;20424;-69
2022/09/07 06:57:44;;;;;;;3.55;1.35;;;25.40;61.20;;;;;;4157540;28;20048;-69
2022/09/07 07:00:26;;;;;;;0.17;0.17;;;25.40;61.30;;;;;;4153593;28;20146;-69
2022/09/07 07:03:12;;;;;;;0.10;0.10;;;25.40;61.30;;;;;;4150252;28;20141;-69
2022/09/07 07:05:57;;;;;;;0.03;0.03;;;25.40;61.20;;;;;;4126521;28;20099;-68
2022/09/07 07:08:39;;;;;;;0.00;0.00;;;25.40;61.30;;;;;;4143724;28;20104;-67
2022/09/07 07:11:24;;;;;;;0.45;0.45;;;25.40;61.30;;;;;;4119694;28;20184;-67
2022/09/07 07:14:07;;;;;;;0.88;0.88;;;25.40;61.30;;;;;;4158386;28;20056;-67
2022/09/07 07:16:52;;;;;;;0.10;0.10;;;25.40;61.40;;;;;;4154829;28;20052;-67
2022/09/07 07:19:34;;;;;;;0.20;0.20;;;25.40;61.40;;;;;;4120793;28;20110;-68
2022/09/07 07:22:17;;;;;;;0.00;0.00;;;25.40;61.40;;;;;;4121616;28;20523;-68
2022/09/07 07:25:20;;;;;;;0.20;0.20;;;25.40;61.40;;;;;;4149562;28;20076;-68
2022/09/07 07:28:04;;;;;;;0.43;0.43;;;25.40;61.50;;;;;;4156515;28;20477;-69
2022/09/07 07:31:08;;;;;;;0.00;0.00;;;25.40;61.50;;;;;;4147762;28;20098;-69
2022/09/07 07:34:12;;;;;;;0.10;0.10;;;25.30;61.50;;;;;;4150903;28;20523;-69
2022/09/07 07:36:53;;;;;;;0.10;0.10;;;25.30;61.50;;;;;;4143752;28;20123;-68
2022/09/07 07:39:35;;;;;;;0.30;0.30;;;25.40;61.80;;;;;;4145293;28;20118;-69
2022/09/07 07:42:38;;;;;;;0.20;0.20;;;25.30;62.10;;;;;;4161627;28;20412;-69
2022/09/07 07:45:21;;;;;;;0.65;0.65;;;25.30;62.30;;;;;;4145925;28;20147;-69
2022/09/07 07:48:25;;;;;;;0.40;0.40;;;25.40;62.70;;;;;;4144808;28;20102;-69
2022/09/07 07:51:09;;;;;;;0.68;0.57;;;25.30;62.80;;;;;;4172734;28;20064;-69
2022/09/07 07:53:53;;;;;;;0.20;0.20;;;25.40;63.00;;;;;;4143927;28;20152;-68
2022/09/07 07:56:36;;;;;;;6.43;2.78;;;25.40;63.10;;;;;;4155392;28;20060;-69
2022/09/07 07:59:20;;;;;;;3.15;1.45;;;25.30;63.10;;;;;;4168619;28;20060;-68
2022/09/07 08:02:12;;;;;;;0.45;0.45;;;25.30;63.10;;;;;;4147116;28;20060;-66
2022/09/07 08:05:04;;;;;;;0.08;0.08;;;25.40;63.40;;;;;;4154628;28;20062;-62
2022/09/07 08:07:50;;;;;;;0.60;0.60;;;25.40;63.50;;;;;;4166479;28;20048;-63
2022/09/07 08:10:35;;;;;;;0.15;0.15;;;25.30;63.60;;;;;;4117736;28;20310;-65
2022/09/07 08:13:24;;;;;;;0.52;0.52;;;25.30;63.70;;;;;;4140832;28;20079;-64
2022/09/07 08:16:08;;;;;;;0.10;0.10;;;25.40;63.90;;;;;;4156023;28;20056;-65
2022/09/07 08:18:54;;;;;;;0.30;0.30;;;25.30;64.00;;;;;;4165293;28;20063;-65
2022/09/07 08:21:41;;;;;;;0.00;0.00;;;25.30;64.10;;;;;;4172986;28;20547;-64
2022/09/07 08:24:29;;;;;;;0.00;0.00;;;25.40;64.30;;;;;;4142674;28;20130;-63
2022/09/07 08:27:19;;;;;;;2.20;1.20;;;25.30;64.30;;;;;;4144147;28;20219;-64
2022/09/07 08:30:13;;;;;;;0.20;0.20;;;25.30;64.40;;;;;;4145382;28;20044;-64
2022/09/07 08:32:58;;;;;;;0.32;0.32;;;25.40;64.50;;;;;;4152357;28;20770;-64
2022/09/07 08:35:43;;;;;;;0.00;0.00;;;25.30;64.50;;;;;;4143291;28;20487;-64
2022/09/07 08:38:32;;;;;;;0.00;0.00;;;25.40;64.70;;;;;;4127420;28;20139;-64
2022/09/07 08:41:58;;;;;;;0.22;0.22;;;25.30;64.80;;;;;;4126518;28;20069;-64
2022/09/07 08:44:52;;;;;;;0.20;0.20;;;25.30;64.70;;;;;;4146083;28;20491;-64
2022/09/07 08:47:41;;;;;;;0.00;0.00;;;25.30;64.80;;;;;;4127391;28;20529;-64
2022/09/07 08:50:32;;;;;;;0.08;0.08;;;25.30;64.80;;;;;;4147716;28;20052;-64
2022/09/07 08:53:16;;;;;;;0.90;0.90;;;25.30;64.80;;;;;;4161062;28;20052;-63
2022/09/07 08:56:19;;;;;;;0.32;0.32;;;25.30;64.80;;;;;;4155849;28;20211;-64
2022/09/07 08:59:15;;;;;;;1.13;1.13;;;25.30;64.80;;;;;;4149990;28;20052;-65
2022/09/07 09:02:02;;;;;;;0.63;0.63;;;25.30;64.80;;;;;;4161431;28;20056;-65
2022/09/07 09:05:21;;;;;;;0.52;0.52;;;25.30;64.80;;;;;;4146220;28;20052;-65
2022/09/07 09:08:21;;;;;;;0.73;0.73;;;25.30;64.80;;;;;;4154064;28;20626;-65
2022/09/07 09:11:11;;;;;;;1.02;1.02;;;25.30;64.80;;;;;;4135543;28;20544;-66
2022/09/07 09:14:05;;;;;;;0.08;0.08;;;25.40;65.00;;;;;;4136866;28;20103;-65
2022/09/07 09:16:58;;;;;;;1.08;0.63;;;25.40;65.10;;;;;;4149192;28;20060;-67
2022/09/07 09:19:57;;;;;;;0.00;0.00;;;25.40;65.10;;;;;;4152551;28;20142;-66
2022/09/07 09:22:39;;;;;;;0.10;0.10;;;25.40;65.20;;;;;;4142182;28;20090;-67
2022/09/07 09:25:27;;;;;;;3.08;2.63;;;25.40;65.20;;;;;;4145273;28;20535;-67
2022/09/07 09:28:12;;;;;;;0.13;0.13;;;25.40;65.50;;;;;;4139172;28;20084;-66
2022/09/07 09:30:54;;;;;;;0.80;0.80;;;25.40;65.60;;;;;;4137110;28;20049;-67
2022/09/07 09:33:36;;;;;;;4.32;2.38;;;25.40;65.70;;;;;;4148158;28;20519;-66
2022/09/07 09:36:31;;;;;;;0.10;0.10;;;25.40;65.70;;;;;;4148287;28;20832;-67
2022/09/07 09:39:32;;;;;;;0.70;0.70;;;25.40;65.70;;;;;;4120941;28;20048;-67
2022/09/07 09:42:25;;;;;;;8.43;1.35;;;25.40;65.90;;;;;;4145257;28;20056;-65
2022/09/07 09:45:15;;;;;;;0.22;0.22;;;25.40;65.80;;;;;;4150126;28;20056;-65
2022/09/07 09:48:20;;;;;;;0.10;0.10;;;25.40;65.80;;;;;;4147237;28;20143;-66
2022/09/07 09:51:06;;;;;;;0.00;0.00;;;25.40;65.70;;;;;;4160406;28;20052;-65
2022/09/07 09:54:24;;;;;;;0.32;0.32;;;25.40;65.70;;;;;;4168891;28;21054;-65
2022/09/07 09:57:07;;;;;;;0.00;0.00;;;25.40;65.60;;;;;;4156043;28;20099;-65
2022/09/07 10:00:01;;;;;;;0.00;0.00;;;25.40;65.70;;;;;;4143907;28;20127;-66
2022/09/07 10:03:22;;;;;;;0.13;0.13;;;25.40;65.60;;;;;;4111092;28;20561;-67
2022/09/07 10:06:27;;;;;;;0.10;0.10;;;25.50;65.60;;;;;;4143540;28;20083;-65
2022/09/07 10:09:19;;;;;;;0.00;0.00;;;25.50;65.60;;;;;;4156785;28;20131;-65
2022/09/07 10:12:05;;;;;;;0.17;0.17;;;25.40;65.40;;;;;;4153927;28;20428;-66
2022/09/07 10:14:51;;;;;;;0.30;0.30;;;25.40;65.50;;;;;;4165651;28;20048;-65
2022/09/07 10:17:41;;;;;;;0.45;0.45;;;25.50;65.50;;;;;;4146240;28;20126;-65
2022/09/07 10:20:45;;;;;;;0.10;0.10;;;25.50;65.30;;;;;;4144752;28;20075;-64
2022/09/07 10:23:28;;;;;;;1.00;0.98;;;25.50;65.30;;;;;;4167328;28;20116;-65
2022/09/07 10:26:26;;;;;;;0.32;0.32;;;25.50;65.30;;;;;;4172271;28;20075;-65
2022/09/07 10:29:15;;;;;;;0.00;0.00;;;25.50;65.20;;;;;;4170606;28;20242;-65
2022/09/07 10:32:23;;;;;;;1.00;1.00;;;25.50;65.20;;;;;;4153014;28;20125;-65
2022/09/07 10:35:17;;;;;;;0.00;0.00;;;25.60;65.20;;;;;;4171112;28;20056;-65
2022/09/07 10:38:12;;;;;;;0.08;0.08;;;25.50;65.00;;;;;;4175327;28;20057;-65
2022/09/07 10:41:03;;;;;;;0.80;0.55;;;25.50;64.90;;;;;;4174451;28;20882;-65
2022/09/07 10:43:48;;;;;;;2.40;2.25;;;25.50;65.80;;;;;;4169635;28;20060;-66
2022/09/07 10:46:44;;;;;;;1.77;0.35;;;25.50;64.90;;;;;;4157931;28;20052;-65
2022/09/07 10:49:53;;;;;;;0.10;0.10;;;25.60;64.80;;;;;;4158657;28;20171;-64
2022/09/07 10:53:13;;;;;;;0.00;0.00;;;25.60;64.70;;;;;;4136923;28;20052;-65
2022/09/07 10:56:21;;;;;;;0.00;0.00;;;25.60;64.90;;;;;;4177147;28;20056;-65
2022/09/07 10:59:26;;;;;;;0.22;0.15;;;25.60;65.60;;;;;;4177204;28;20570;-65
2022/09/07 11:02:35;;;;;;;0.03;0.03;;;25.60;66.10;;;;;;4159028;28;20065;-66
2022/09/07 11:05:32;;;;;;;7.22;1.88;;;25.70;66.10;;;;;;4158874;28;20060;-67
2022/09/07 11:08:33;;;;;;;0.00;0.00;;;25.70;65.90;;;;;;4157334;28;20096;-66
2022/09/07 11:11:40;;;;;;;0.32;0.32;;;25.70;65.90;;;;;;4158782;28;20448;-66
2022/09/07 11:14:50;;;;;;;0.00;0.00;;;25.70;65.80;;;;;;4136446;28;20111;-66
2022/09/07 11:17:45;;;;;;;0.00;0.00;;;25.70;65.80;;;;;;4133004;28;20161;-66
2022/09/07 11:20:38;;;;;;;0.00;0.00;;;25.70;65.80;;;;;;4138023;28;20060;-66
2022/09/07 11:23:23;;;;;;;1.35;1.10;;;25.70;65.70;;;;;;4153022;28;20059;-65
2022/09/07 11:26:17;;;;;;;0.00;0.00;;;25.80;65.60;;;;;;4155332;28;20056;-65
2022/09/07 11:29:01;;;;;;;0.00;0.00;;;25.80;65.50;;;;;;4148672;28;20171;-66
2022/09/07 11:32:07;;;;;;;1.50;1.40;;;25.80;65.30;;;;;;4158898;28;20604;-65
2022/09/07 11:34:51;;;;;;;0.70;0.70;;;25.80;65.10;;;;;;4159680;28;20178;-66
2022/09/07 11:37:46;;;;;;;0.00;0.00;;;25.90;65.10;;;;;;4146913;28;20221;-65
2022/09/07 11:40:38;;;;;;;0.47;0.47;;;25.90;64.90;;;;;;4172194;28;20051;-66
2022/09/07 11:43:24;;;;;;;0.00;0.00;;;25.90;65.60;;;;;;4175160;28;20522;-65
2022/09/07 11:46:12;;;;;;;0.15;0.15;;;26.00;64.60;;;;;;4150995;28;20408;-65
2022/09/07 11:48:56;;;;;;;0.20;0.20;;;26.00;64.40;;;;;;4161421;28;20051;-65
2022/09/07 11:51:43;;;;;;;0.00;0.00;;;26.00;64.20;;;;;;4163397;28;20052;-65
2022/09/07 11:54:38;;;;;;;0.38;0.38;;;26.10;64.10;;;;;;4171249;28;20052;-66
2022/09/07 11:57:45;;;;;;;0.00;0.00;;;26.10;64.20;;;;;;4157688;28;20143;-67
2022/09/07 12:00:37;;;;;;;0.47;0.47;;;26.10;64.20;;;;;;4159027;28;20052;-66
2022/09/07 12:03:43;;;;;;;0.22;0.22;;;26.10;64.10;;;;;;4159452;28;20068;-67
2022/09/07 12:07:00;;;;;;;0.10;0.10;;;26.10;64.00;;;;;;4158741;28;20048;-67
2022/09/07 12:09:59;;;;;;;0.00;0.00;;;26.20;64.30;;;;;;4139966;28;20056;-66
2022/09/07 12:13:01;;;;;;;0.63;0.63;;;26.20;64.10;;;;;;4158475;28;20396;-66
2022/09/07 12:15:53;;;;;;;0.00;0.00;;;26.20;64.10;;;;;;4149182;28;20056;-65
2022/09/07 12:19:03;;;;;;;0.00;0.00;;;26.20;64.90;;;;;;4162537;28;20128;-63
2022/09/07 12:21:47;;;;;;;0.00;0.00;;;26.20;64.60;;;;;;4157685;28;20499;-62
2022/09/07 12:24:39;;;;;;;0.17;0.17;;;26.30;64.60;;;;;;4151386;28;20549;-63
2022/09/07 12:27:45;;;;;;;0.08;0.08;;;26.30;64.20;;;;;;4153741;28;20155;-64
2022/09/07 12:30:56;;;;;;;0.75;0.75;;;26.30;63.90;;;;;;4158501;28;20522;-64
2022/09/07 12:33:39;;;;;;;0.20;0.20;;;26.30;63.70;;;;;;4167879;28;20060;-63
2022/09/07 12:36:40;;;;;;;0.10;0.10;;;26.30;63.40;;;;;;4175239;28;20126;-64
2022/09/07 12:39:28;;;;;;;0.00;0.00;;;26.40;68.80;;;;;;4156845;28;20512;-64
2022/09/07 12:42:22;;;;;;;2.10;1.65;;;26.40;71.60;;;;;;4157463;28;20080;-65
2022/09/07 12:45:50;;;;;;;1.13;1.10;;;26.40;71.40;;;;;;4156542;28;20210;-64
2022/09/07 12:48:55;;;;;;;0.45;0.30;;;26.50;69.90;;;;;;4167692;28;20502;-64
2022/09/07 12:51:39;;;;;;;0.00;0.00;;;26.50;68.00;;;;;;4147390;28;20132;-63
2022/09/07 12:54:48;;;;;;;0.43;0.43;;;26.50;66.20;;;;;;4166909;28;20060;-64
2022/09/07 12:57:54;;;;;;;0.10;0.10;;;26.50;65.30;;;;;;4146085;28;20056;-63
2022/09/07 13:00:49;;;;;;;0.08;0.08;;;26.50;64.70;;;;;;4157592;28;20057;-63
2022/09/07 13:03:46;;;;;;;0.00;0.00;;;26.50;64.20;;;;;;4157915;28;20194;-63
2022/09/07 13:06:55;;;;;;;0.00;0.00;;;26.50;64.10;;;;;;4130436;28;20061;-64
2022/09/07 13:09:56;;;;;;;0.43;0.43;;;26.50;63.90;;;;;;4160158;28;20364;-64
2022/09/07 13:12:40;;;;;;;0.20;0.20;;;26.50;64.00;;;;;;4165960;28;20052;-64
2022/09/07 13:15:45;;;;;;;0.00;0.00;;;26.50;63.80;;;;;;3928360;29;20062;-66
2022/09/07 13:18:45;;;;;;;0.25;0.25;;;26.50;63.60;;;;;;3919453;29;20416;-67
2022/09/07 13:21:41;;;;;;;0.73;0.30;;;26.50;63.50;;;;;;3925853;30;20063;-67
2022/09/07 13:24:55;;;;;;;0.00;0.00;;;26.60;63.50;;;;;;3922810;30;20071;-67
2022/09/07 13:27:52;;;;;;;0.00;0.00;;;26.50;63.30;;;;;;3917003;30;20075;-66
2022/09/07 13:30:52;;;;;;;0.13;0.13;;;26.60;63.20;;;;;;3906756;30;20067;-66
2022/09/07 13:33:53;;;;;;;0.10;0.10;;;26.60;63.10;;;;;;3921713;30;20066;-67
2022/09/07 13:36:40;;;;;;;0.00;0.00;;;26.60;63.20;;;;;;3923409;30;20129;-68
2022/09/07 13:39:24;;;;;;;0.00;0.00;;;26.60;63.00;;;;;;3925055;30;20087;-67
2022/09/07 13:42:07;;;;;;;0.00;0.00;;;26.60;62.90;;;;;;3923968;30;20055;-66
2022/09/07 13:44:54;;;;;;;0.00;0.00;;;26.70;62.80;;;;;;3925462;30;20515;-66
2022/09/07 13:47:48;;;;;;;0.00;0.00;;;26.70;62.60;;;;;;3924202;29;20146;-67
2022/09/07 13:50:41;;;;;;;0.03;0.03;;;26.70;62.50;;;;;;3926251;30;20091;-66
2022/09/07 13:53:42;;;;;;;0.00;0.00;;;26.80;62.40;;;;;;3903656;30;20055;-66
2022/09/07 13:56:37;;;;;;;0.00;0.00;;;26.80;62.40;;;;;;3901186;30;20255;-65
2022/09/07 13:59:29;;;;;;;0.17;0.17;;;26.80;62.30;;;;;;3932499;30;20585;-65
2022/09/07 14:02:22;;;;;;;0.08;0.05;;;26.80;62.20;;;;;;3922116;30;20060;-65
2022/09/07 14:05:06;;;;;;;0.10;0.10;;;26.90;62.00;;;;;;3927233;29;20268;-66
2022/09/07 14:07:55;;;;;;;0.00;0.00;;;26.90;61.70;;;;;;3913753;30;20059;-66
2022/09/07 14:10:47;;;;;;;0.00;0.00;;;26.90;61.30;;;;;;3925450;30;20066;-67
2022/09/07 14:13:31;;;;;;;0.00;0.00;;;26.90;60.90;;;;;;3908372;30;20059;-66
2022/09/07 14:16:16;;;;;;;0.00;0.00;;;27.00;60.70;;;;;;3913436;30;20090;-66
2022/09/07 14:18:58;;;;;;;;;;;27.00;60.60;;;;;;3925549;30;20801;-65
2022/09/07 14:21:40;;;;;;;0.00;0.00;;;27.00;60.70;;;;;;3911923;29;19937;-65
2022/09/07 14:24:37;;;;;;;0.00;0.00;;;27.00;60.50;;;;;;3920554;30;20423;-66
2022/09/07 14:27:22;;;;;;;0.00;0.00;;;27.00;60.60;;;;;;3922273;30;20067;-67
2022/09/07 14:30:22;;;;;;;0.08;0.08;;;27.10;60.60;;;;;;3921059;29;20143;-64
2022/09/07 14:33:06;;;;;;;0.00;0.00;;;27.00;60.40;;;;;;3912012;30;20063;-66
2022/09/07 14:35:49;;;;;;;0.00;0.00;;;27.00;60.30;;;;;;3905550;30;20134;-65
2022/09/07 14:38:33;;;;;;;0.00;0.00;;;27.00;60.20;;;;;;3909088;30;20063;-65
2022/09/07 14:41:40;;;;;;;0.00;0.00;;;27.00;60.20;;;;;;3908112;30;20068;-65
2022/09/07 14:44:29;;;;;;;0.40;0.15;;;27.00;60.20;;;;;;3913029;30;20063;-65
2022/09/07 14:47:26;;;;;;;0.00;0.00;;;27.10;60.20;;;;;;3922686;30;20083;-65
2022/09/07 14:50:18;;;;;;;0.00;0.00;;;27.00;60.30;;;;;;3908510;30;20063;-64
2022/09/07 14:53:04;;;;;;;;;;;27.10;60.40;;;;;;3909030;30;20121;-66
2022/09/07 14:56:10;;;;;;;0.00;0.00;;;27.10;60.50;;;;;;3911270;30;19933;-66
2022/09/07 14:58:53;;;;;;;0.00;0.00;;;27.00;60.40;;;;;;3920782;30;20074;-65